Northern & Central Napa County

32 Stations

15 Minute Data | America/Los_Angeles
as of 5/8/26 2:10 AM PDT
Station Date Time Temp (°F) RH (%) Dew Pt (°F) Wind Spd (mph) Wind Dir (°) Wind Gust (mph) Latest Rain (In) Daily Rain (In) Daily Max Temp (°F) Daily Min Temp (°F)
Calistoga-North 5/8/26 0200 52.7   0.8 97   2 51.9   0.4 - - - 0.00 0.00 53.5   0.4 52.5   0.7
Stags Leap Dist (Chimney Rock) 5/8/26 0200 53.5   1.0 94   0 51.9   0.8 1.9   1.4 SE | 144 4.5   3.3 0.00 0.00 53.8   0.3 53.4   1.0
Diamond Mtn (McEachran) 5/8/26 0200 52.1   0.2 97   1 51.4   0.2 - - - - - 52.6   0.2 52.0   0.2
Diamond Mtn (Schramsberg) 5/8/26 0200 51.1   0.3 100   0 51.1   0.3 - - - 0.00 0.00 51.8   0.7 51.0   0.4
Stags Leap Dist (Silverado Vineyards) 5/8/26 0200 52.6   0.2 91   0 50.2   0.1 0.6   0.2 W | 279 1.8   0.1 0.00 0.00 52.9   0.1 52.5   0.2
Oak Knoll-East (Ranch 53) 5/8/26 0200 53.6   0.3 91   1 51.1   0.2 0.7   0.3 E | 91 2.6   0.1 0.00 0.00 53.8   0.2 53.2   0.5
Rutherford-North (Mee Ln) 5/8/26 0200 51.1   0.7 94   1 49.6   0.3 2.0   0.0 S | 175 4.2   0.2 0.00 0.00 51.4   0.7 50.9   0.8
Frisinger Napa-NW 5/8/26 0200 52.8   0.8 93   1 51.0   0.4 1.2   0.1 WSW | 257 3.8   1.4 0.00 0.00 53.4   0.2 52.8   0.4
Napa-North (Ranch 29) 5/8/26 0200 54.0   0.8 99   1 53.6   0.4 0.4   0.1 SSE | 167 3.2   0.4 0.00 0.00 54.0   0.7 53.4   0.3
St. Helena (NVV Office) 5/8/26 0200 53.8   0.2 - - 1.2   0.5 E | 89 4.0   0.3 0.00 0.00 53.9   0.6 53.7   0.2
Crossroads Ranch 5/8/26 0200 53.5   0.1 91   1 50.8   0.3 2.6   0.7 SSE | 162 4.2   2.0 0.00 0.00 53.8   0.0 53.3   0.0
Oakville 5/8/26 0200 53.3   0.3 92   2 51.2   0.4 1.7   0.6 SE | 136 4.2   1.3 0.00 0.00 53.4   0.2 53.2   0.0
OV561-East 5/8/26 0200 53.9   0.1 - - - - - - - 54.3   0.4 53.8   0.6
OV518-West 5/8/26 0200 53.5   0.2 - - - - - - - 53.6   0.3 53.3   0.2
Napa-NW (Ranch 54) 5/8/26 0200 53.2   0.6 94   3 51.5   0.2 0.9   0.9 WNW | 287 2.7   2.1 0.00 0.00 53.6   0.4 53.0   0.2
Calistoga (Ranch 78) 5/8/26 0200 52.3   1.4 94   2 50.7   0.7 3.0   0.8 NNW | 328 6.3   0.1 0.00 0.00 52.5   1.3 52.2   1.1
Yountville-SE (Ranch 85) 5/8/26 0200 53.6   0.4 92   1 51.5   0.2 2.1   1.7 SE | 127 4.0   1.4 0.00 0.00 54.0   0.0 53.5   0.4
Yountville-South (Ranch 87) 5/8/26 0200 53.4   0.1 94   0 51.8   0.1 1.4   0.7 ESE | 108 3.0   0.2 0.00 0.00 54.0   0.3 53.3   0.1
Rutherford Hill Estate 5/8/26 0200 52.2   0.3 97   3 51.3   0.7 0.6   0.2 S | 179 2.4   0.4 0.00 0.00 52.6   0.0 52.1   0.1
Rutherford (STS) 5/8/26 0200 52.9   0.5 87   2 49.3   1.1 1.7   0.6 SE | 141 3.8   0.7 0.00 0.00 53.1   0.4 52.8   0.3
Borreo (Soda Canyon) 5/8/26 0200 51.0   0.5 95   0 49.7   0.4 1.0   0.9 S | 181 3.2   2.1 0.00 0.00 51.5   0.7 50.9   1.2
Oakville-NE (Ranch 88) 5/8/26 0200 53.3   0.2 91   0 50.6   0.2 1.0   0.0 S | 183 3.8   1.6 0.00 0.00 53.6   0.1 53.2   0.6
Soda Canyon 5/8/26 0200 53.3   1.1 89   0 50.2   1.0 1.1   0.1 SE | 134 3.9   0.4 0.00 0.00 53.6   0.5 53.2   1.8
Silver Oak OV 5/8/26 0200 53.4   0.3 93   2 51.5   0.2 2.5   0.4 SE | 146 4.1   1.5 0.00 0.00 53.6   0.2 53.3   0.2
Tiara Fria (East St. Helena) 5/8/26 0200 53.5   0.3 94   3 51.9   0.6 1.9   0.6 ESE | 111 3.9   0.5 0.00 0.00 53.7   0.7 53.3   0.3
To Kalon Remote (TKKE) 5/8/26 0200 53.4   0.2 - - - - - - - 53.6   0.3 53.0   0.5
To Kalon 5/8/26 0200 52.8   0.6 96   2 51.7   0.2 2.1   1.6 SSE | 154 3.7   1.4 0.00 0.00 53.2   0.4 52.6   0.7
To Kalon Remote (TKN5) 5/8/26 0200 53.5   0.2 - - - - - - - 53.6   0.5 53.1   0.4
St. Helena-North 5/8/26 0200 53.7   0.4 91   2 51.1   0.8 1.6   2.1 SSE | 148 2.9   3.5 0.00 0.00 53.9   0.1 53.5   0.4
Twomey Calistoga 5/8/26 0145 52.6   0.9 96   2 51.4   0.4 1.0   1.2 NNW | 342 3.4   1.9 0.00 0.00 52.6   0.9 50.9   2.1
Wappo Hill Floor 5/8/26 0200 52.7   0.4 100   0 52.6   0.4 2.2   1.9 SE | 139 4.2   2.4 0.00 0.00 53.2   0.0 52.6   0.6
Yountville (Ranch 67) 5/8/26 0200 52.6   0.2 92   0 50.4   0.2 0.9   0.9 ESE | 102 2.8   1.1 0.00 0.00 52.9   0.1 52.6   0.3
Max     54.0 100 53.6 3.0 - 6.3 0.00 0.00 54.3 53.8
Avg     53.0 94 51.1 1.5 - 3.6 0.00 - - -
Min     51.0 87 49.3 0.4 - 1.8 0.00 0.00 51.4 50.9